Terminal Aerodrome Forecast
Issued by NWS

Home | Current Version | Previous Version | Text Only | Print | Product List | Glossary On
Versions: 1 2 3 4 5 6 7 8 9 10 11 12 13 14 15 16 17 18 19 20 21 22 23 24 25 26 27 28 29 30 31 32 33 34 35 36 37 38 39 40 41 42 43 44 45 46 47 48 49 50
000
FTUS45 KBOI 142111 AAA
TAFBKE
TAF AMD
KBKE 142111Z 1421/1518 VRB05KT 6SM -RA BR BKN005 OVC035
     FM150100 30006KT P6SM VCSH SCT025 BKN040
     FM151200 14010KT P6SM SCT020 BKN100=

USA.gov is the U.S. government's official web portal to all federal, state and local government web resources and services.